createdAt,value
2019-06-01T00:01:12.567Z,14.65
2019-06-01T00:03:42.180Z,14.57
2019-06-01T00:06:10.723Z,14.63
2019-06-01T00:08:40.145Z,14.61
2019-06-01T00:11:09.509Z,14.40
2019-06-01T00:13:39.405Z,14.17
2019-06-01T00:16:07.983Z,14.14
2019-06-01T00:18:36.495Z,13.96
2019-06-01T00:21:05.037Z,14.07
2019-06-01T00:23:33.537Z,14.17
2019-06-01T00:26:02.035Z,14.16
2019-06-01T00:28:30.540Z,14.12
2019-06-01T00:30:59.022Z,13.96
2019-06-01T00:33:27.525Z,13.90
2019-06-01T00:35:56.007Z,13.85
2019-06-01T00:38:24.511Z,13.87
2019-06-01T00:40:52.980Z,13.88
2019-06-01T00:43:21.490Z,13.82
2019-06-01T00:45:50.710Z,13.86
2019-06-01T00:48:19.359Z,13.81
2019-06-01T00:50:49.118Z,13.82
2019-06-01T00:53:17.629Z,13.85
2019-06-01T00:55:47.311Z,13.84
2019-06-01T00:58:15.810Z,13.81
2019-06-01T01:00:46.125Z,13.79
2019-06-01T01:03:14.544Z,13.74
2019-06-01T01:05:44.502Z,13.70
2019-06-01T01:08:13.121Z,13.64
2019-06-01T01:10:41.610Z,13.61
2019-06-01T01:13:11.719Z,13.56
2019-06-01T01:15:40.222Z,13.50
2019-06-01T01:18:09.052Z,13.42
2019-06-01T01:20:38.393Z,13.39
2019-06-01T01:23:08.118Z,13.38
2019-06-01T01:25:36.950Z,13.32
2019-06-01T01:28:06.132Z,13.22
2019-06-01T01:30:34.665Z,12.92
2019-06-01T01:33:03.197Z,13.10
2019-06-01T01:35:31.696Z,13.27
2019-06-01T01:38:00.174Z,13.19
2019-06-01T01:40:29.449Z,13.04
2019-06-01T01:42:58.954Z,13.11
2019-06-01T01:45:27.562Z,13.02
2019-06-01T01:47:57.167Z,13.10
2019-06-01T01:50:27.230Z,13.00
2019-06-01T01:52:57.087Z,13.04
2019-06-01T01:55:25.875Z,13.10
2019-06-01T01:57:55.417Z,13.11
2019-06-01T02:00:44.309Z,13.17
2019-06-01T02:03:12.855Z,13.22
2019-06-01T02:05:41.490Z,13.36
2019-06-01T02:08:10.043Z,13.33
2019-06-01T02:10:38.788Z,13.35
2019-06-01T02:13:07.710Z,13.21
2019-06-01T02:15:37.469Z,13.18
2019-06-01T02:18:06.587Z,13.15
2019-06-01T02:20:35.156Z,13.14
2019-06-01T02:23:04.702Z,13.03
2019-06-01T02:25:33.213Z,12.92
2019-06-01T02:28:01.836Z,12.83
2019-06-01T02:30:30.487Z,12.86
2019-06-01T02:33:00.243Z,12.80
2019-06-01T02:35:28.825Z,12.75
2019-06-01T02:37:58.588Z,12.72
2019-06-01T02:40:27.408Z,12.72
2019-06-01T02:42:57.200Z,12.55
2019-06-01T02:45:26.265Z,12.65
2019-06-01T02:47:55.378Z,12.67
2019-06-01T02:50:24.169Z,12.61
2019-06-01T02:52:52.676Z,12.55
2019-06-01T02:55:21.291Z,12.58
2019-06-01T02:57:49.771Z,12.63
2019-06-01T03:00:21.487Z,12.62
2019-06-01T03:02:50.104Z,12.64
2019-06-01T03:05:19.755Z,12.61
2019-06-01T03:07:49.973Z,12.48
2019-06-01T03:10:19.116Z,12.51
2019-06-01T03:12:47.596Z,12.57
2019-06-01T03:15:16.843Z,12.55
2019-06-01T03:17:49.143Z,12.49
2019-06-01T03:20:18.279Z,12.52
2019-06-01T03:22:49.799Z,12.59
2019-06-01T03:25:18.378Z,12.60
2019-06-01T03:27:49.627Z,12.64
2019-06-01T03:30:21.183Z,12.70
2019-06-01T03:32:49.676Z,12.73
2019-06-01T03:35:18.159Z,12.81
2019-06-01T03:37:46.725Z,12.90
2019-06-01T03:40:23.555Z,12.93
2019-06-01T03:42:45.563Z,12.99
2019-06-01T03:45:14.129Z,13.07
2019-06-01T03:47:43.112Z,13.10
2019-06-01T03:50:13.159Z,13.16
2019-06-01T03:52:41.726Z,13.22
2019-06-01T03:55:10.210Z,13.25
2019-06-01T03:57:38.714Z,13.31
2019-06-01T04:00:09.397Z,13.39
2019-06-01T04:02:38.013Z,13.43
2019-06-01T04:05:07.461Z,13.42
2019-06-01T04:07:38.777Z,13.56
2019-06-01T04:10:08.000Z,13.74
2019-06-01T04:12:36.544Z,13.80
2019-06-01T04:15:10.131Z,13.89
2019-06-01T04:17:36.635Z,13.98
2019-06-01T04:20:08.207Z,14.08
2019-06-01T04:22:36.748Z,14.23
2019-06-01T04:25:06.462Z,14.32
2019-06-01T04:27:34.966Z,14.43
2019-06-01T04:30:04.452Z,14.48
2019-06-01T04:32:48.522Z,14.62
2019-06-01T04:35:03.829Z,14.69
2019-06-01T04:37:33.331Z,14.77
2019-06-01T04:40:01.876Z,14.88
2019-06-01T04:42:30.384Z,15.07
2019-06-01T04:44:58.859Z,15.20
2019-06-01T04:47:27.362Z,15.35
2019-06-01T04:49:55.848Z,15.55
2019-06-01T04:52:24.425Z,15.57
2019-06-01T04:54:52.909Z,15.70
2019-06-01T04:57:21.406Z,15.84
2019-06-01T04:59:49.883Z,15.92
2019-06-01T05:02:18.673Z,16.00
2019-06-01T05:04:47.155Z,16.10
2019-06-01T05:07:15.676Z,16.10
2019-06-01T05:09:44.148Z,16.20
2019-06-01T05:12:13.612Z,16.31
2019-06-01T05:14:42.109Z,16.50
2019-06-01T05:17:12.915Z,16.63
2019-06-01T05:19:40.808Z,16.80
2019-06-01T05:22:10.413Z,16.94
2019-06-01T05:24:38.958Z,17.15
2019-06-01T05:27:07.436Z,17.28
2019-06-01T05:29:35.936Z,17.51
2019-06-01T05:32:04.579Z,17.70
2019-06-01T05:34:33.072Z,17.80
2019-06-01T05:37:01.579Z,17.91
2019-06-01T05:39:30.078Z,17.95
2019-06-01T05:41:58.550Z,17.94
2019-06-01T05:44:27.055Z,18.03
2019-06-01T05:46:55.557Z,18.07
2019-06-01T05:49:24.061Z,18.18
2019-06-01T05:51:52.535Z,18.13
2019-06-01T05:54:21.036Z,18.16
2019-06-01T05:56:49.513Z,18.25
2019-06-01T05:59:18.354Z,18.21
2019-06-01T06:01:46.871Z,18.17
2019-06-01T06:04:15.427Z,18.21
2019-06-01T06:06:43.934Z,18.32
2019-06-01T06:09:13.318Z,18.60
2019-06-01T06:11:41.808Z,18.65
2019-06-01T06:14:11.490Z,18.76
2019-06-01T06:16:39.972Z,18.77
2019-06-01T06:19:08.481Z,18.88
2019-06-01T06:21:36.962Z,19.13
2019-06-01T06:24:05.694Z,19.18
2019-06-01T06:26:34.182Z,19.27
2019-06-01T06:29:02.687Z,19.34
2019-06-01T06:31:31.156Z,19.50
2019-06-01T06:33:59.661Z,19.65
2019-06-01T06:36:28.200Z,19.79
2019-06-01T06:38:56.708Z,19.54
2019-06-01T06:41:25.178Z,19.75
2019-06-01T06:43:53.671Z,20.12
2019-06-01T06:46:22.791Z,20.26
2019-06-01T06:48:51.307Z,20.48
2019-06-01T06:51:19.871Z,20.46
2019-06-01T06:53:48.341Z,20.52
2019-06-01T06:56:17.837Z,20.59
2019-06-01T06:58:46.391Z,20.49
2019-06-01T07:01:14.904Z,20.68
2019-06-01T07:03:43.362Z,20.93
2019-06-01T07:06:11.881Z,21.34
2019-06-01T07:08:40.348Z,21.22
2019-06-01T07:11:11.772Z,21.53
2019-06-01T07:13:39.046Z,21.64
2019-06-01T07:16:07.528Z,21.94
2019-06-01T07:18:35.998Z,22.14
2019-06-01T07:21:04.561Z,22.04
2019-06-01T07:23:33.045Z,22.06
2019-06-01T07:26:01.554Z,22.08
2019-06-01T07:28:30.027Z,21.99
2019-06-01T07:30:58.521Z,21.99
2019-06-01T07:33:26.994Z,21.99
2019-06-01T07:35:55.487Z,21.97
2019-06-01T07:38:24.588Z,21.90
2019-06-01T07:40:53.242Z,22.07
2019-06-01T07:43:22.612Z,22.23
2019-06-01T07:45:51.075Z,22.43
2019-06-01T07:48:20.861Z,22.55
2019-06-01T07:50:49.469Z,22.51
2019-06-01T07:53:17.939Z,22.72
2019-06-01T07:55:46.504Z,22.99
2019-06-01T07:58:14.971Z,23.06
2019-06-01T08:00:43.479Z,22.93
2019-06-01T08:03:11.955Z,22.98
2019-06-01T08:05:40.465Z,23.03
2019-06-01T08:08:08.928Z,23.10
2019-06-01T08:10:37.433Z,23.19
2019-06-01T08:13:05.900Z,23.30
2019-06-01T08:15:34.460Z,23.35
2019-06-01T08:18:02.944Z,23.48
2019-06-01T08:20:32.253Z,23.65
2019-06-01T08:23:00.798Z,23.42
2019-06-01T08:25:30.625Z,23.42
2019-06-01T08:27:59.246Z,23.50
2019-06-01T08:30:28.655Z,23.57
2019-06-01T08:32:57.197Z,23.59
2019-06-01T08:35:26.916Z,23.73
2019-06-01T08:37:55.435Z,24.08
2019-06-01T08:40:25.174Z,24.22
2019-06-01T08:42:53.687Z,24.24
2019-06-01T08:45:23.417Z,24.14
2019-06-01T08:47:52.029Z,24.19
2019-06-01T08:50:20.508Z,24.08
2019-06-01T08:52:48.991Z,24.14
2019-06-01T08:55:17.722Z,24.29
2019-06-01T08:57:46.225Z,24.60
2019-06-01T09:00:14.943Z,24.35
2019-06-01T09:02:43.442Z,24.48
2019-06-01T09:05:24.014Z,24.36
2019-06-01T09:07:42.717Z,24.61
2019-06-01T09:10:12.030Z,24.62
2019-06-01T09:12:40.532Z,24.85
2019-06-01T09:15:11.054Z,24.93
2019-06-01T09:17:39.632Z,24.80
2019-06-01T09:20:08.435Z,24.93
2019-06-01T09:22:36.937Z,25.26
2019-06-01T09:25:06.054Z,25.22
2019-06-01T09:27:34.550Z,25.12
2019-06-01T09:30:03.299Z,25.28
2019-06-01T09:32:32.180Z,25.66
2019-06-01T09:35:00.742Z,25.60
2019-06-01T09:37:30.450Z,25.57
2019-06-01T09:39:59.009Z,25.44
2019-06-01T09:42:28.766Z,25.71
2019-06-01T09:44:57.249Z,25.65
2019-06-01T09:47:26.977Z,25.17
2019-06-01T09:49:55.600Z,25.23
2019-06-01T09:52:24.078Z,25.76
2019-06-01T09:54:52.590Z,26.37
2019-06-01T09:57:21.068Z,27.09
2019-06-01T09:59:49.564Z,27.42
2019-06-01T10:02:18.031Z,26.41
2019-06-01T10:04:46.529Z,27.10
2019-06-01T10:07:14.997Z,26.27
2019-06-01T10:09:43.491Z,25.96
2019-06-01T10:12:11.965Z,25.19
2019-06-01T10:14:40.465Z,24.97
2019-06-01T10:17:09.230Z,26.07
2019-06-01T10:19:38.860Z,29.36
2019-06-01T10:22:07.485Z,31.75
2019-06-01T10:24:37.155Z,30.99
2019-06-01T10:27:05.749Z,29.54
2019-06-01T10:29:34.642Z,28.40
2019-06-01T10:32:03.186Z,29.12
2019-06-01T10:34:31.676Z,32.12
2019-06-01T10:37:00.143Z,33.71
2019-06-01T10:39:28.714Z,34.19
2019-06-01T10:41:57.189Z,35.12
2019-06-01T10:44:25.680Z,33.69
2019-06-01T10:46:54.157Z,34.84
2019-06-01T10:49:22.659Z,36.52
2019-06-01T10:51:51.128Z,35.31
2019-06-01T10:54:19.623Z,34.77
2019-06-01T10:56:48.103Z,34.50
2019-06-01T10:59:16.609Z,34.50
2019-06-01T11:01:45.215Z,35.41
2019-06-01T11:04:13.707Z,35.65
2019-06-01T11:06:46.464Z,32.58
2019-06-01T11:09:12.476Z,33.68
2019-06-01T11:11:41.208Z,33.26
2019-06-01T11:14:09.729Z,33.29
2019-06-01T11:16:39.493Z,34.19
2019-06-01T11:19:08.157Z,33.61
2019-06-01T11:21:37.448Z,36.37
2019-06-01T11:24:06.239Z,35.95
2019-06-01T11:26:35.571Z,36.02
2019-06-01T11:29:04.180Z,35.25
2019-06-01T11:31:33.840Z,34.23
2019-06-01T11:34:02.342Z,33.62
2019-06-01T11:36:30.816Z,31.76
2019-06-01T11:38:59.311Z,29.95
2019-06-01T11:41:27.784Z,33.21
2019-06-01T11:43:56.285Z,34.73
2019-06-01T11:46:24.753Z,35.00
2019-06-01T11:48:53.268Z,33.95
2019-06-01T11:51:21.745Z,33.55
2019-06-01T11:53:50.238Z,34.75
2019-06-01T11:56:18.742Z,34.61
2019-06-01T11:58:47.214Z,34.58
2019-06-01T12:01:15.717Z,34.94
2019-06-01T12:03:44.211Z,36.15
2019-06-01T12:06:12.788Z,36.69
2019-06-01T12:08:42.280Z,35.83
2019-06-01T12:11:10.931Z,35.32
2019-06-01T12:13:40.189Z,36.69
2019-06-01T12:16:08.775Z,37.96
2019-06-01T12:18:38.500Z,37.65
2019-06-01T12:21:08.232Z,36.70
2019-06-01T12:23:37.326Z,36.68
2019-06-01T12:26:05.883Z,35.20
2019-06-01T12:28:34.363Z,33.92
2019-06-01T12:31:02.856Z,34.00
2019-06-01T12:33:31.325Z,34.28
2019-06-01T12:35:59.817Z,34.11
2019-06-01T12:38:28.525Z,33.59
2019-06-01T12:40:57.017Z,33.57
2019-06-01T12:43:25.486Z,32.46
2019-06-01T12:46:06.946Z,31.68
2019-06-01T12:48:24.183Z,32.67
2019-06-01T12:50:52.759Z,34.27
2019-06-01T12:53:21.225Z,35.57
2019-06-01T12:55:49.721Z,34.55
2019-06-01T12:58:18.207Z,32.25
2019-06-01T13:00:46.686Z,34.67
2019-06-01T13:03:15.151Z,36.26
2019-06-01T13:05:43.679Z,37.24
2019-06-01T13:08:12.111Z,36.56
2019-06-01T13:10:41.030Z,35.82
2019-06-01T13:13:09.556Z,35.55
2019-06-01T13:15:38.047Z,35.47
2019-06-01T13:18:06.521Z,36.19
2019-06-01T13:20:35.017Z,37.97
2019-06-01T13:23:03.487Z,37.36
2019-06-01T13:25:31.982Z,38.26
2019-06-01T13:28:00.460Z,38.09
2019-06-01T13:30:28.964Z,38.29
2019-06-01T13:32:57.424Z,38.74
2019-06-01T13:35:25.924Z,37.60
2019-06-01T13:38:10.945Z,36.03
2019-06-01T13:40:25.387Z,35.22
2019-06-01T13:42:53.871Z,35.93
2019-06-01T13:45:22.438Z,37.04
2019-06-01T13:47:51.885Z,38.70
2019-06-01T13:50:20.364Z,39.24
2019-06-01T13:52:49.959Z,38.24
2019-06-01T13:55:18.506Z,37.77
2019-06-01T13:57:48.246Z,37.00
2019-06-01T14:00:29.400Z,38.92
2019-06-01T14:02:50.816Z,39.42
2019-06-01T14:05:17.369Z,39.99
2019-06-01T14:07:45.885Z,39.36
2019-06-01T14:10:14.794Z,39.07
2019-06-01T14:12:43.284Z,39.47
2019-06-01T14:15:12.037Z,38.60
2019-06-01T14:17:40.529Z,38.64
2019-06-01T14:20:09.335Z,39.04
2019-06-01T14:22:37.834Z,38.95
2019-06-01T14:25:13.673Z,38.58
2019-06-01T14:27:37.186Z,38.62
2019-06-01T14:30:07.841Z,38.18
2019-06-01T14:32:36.341Z,37.26
2019-06-01T14:35:08.798Z,38.38
2019-06-01T14:37:37.299Z,39.66
2019-06-01T14:40:06.707Z,40.24
2019-06-01T14:42:35.390Z,39.87
2019-06-01T14:45:05.446Z,37.99
2019-06-01T14:47:33.941Z,37.80
2019-06-01T14:50:02.446Z,38.24
2019-06-01T14:52:30.949Z,38.09
2019-06-01T14:54:59.430Z,38.87
2019-06-01T14:57:27.927Z,37.38
2019-06-01T14:59:56.403Z,38.70
2019-06-01T15:02:24.894Z,38.90
2019-06-01T15:04:54.324Z,39.09
2019-06-01T15:07:22.793Z,39.88
2019-06-01T15:09:52.268Z,39.11
2019-06-01T15:12:20.833Z,37.68
2019-06-01T15:14:50.779Z,36.48
2019-06-01T15:17:19.404Z,36.33
2019-06-01T15:19:47.876Z,36.73
2019-06-01T15:22:16.375Z,37.62
2019-06-01T15:24:44.845Z,37.84
2019-06-01T15:27:13.343Z,37.64
2019-06-01T15:29:41.819Z,37.03
2019-06-01T15:32:10.310Z,36.29
2019-06-01T15:34:38.789Z,36.70
2019-06-01T15:37:07.278Z,37.19
2019-06-01T15:39:35.796Z,36.86
2019-06-01T15:42:04.362Z,36.38
2019-06-01T15:44:32.834Z,36.36
2019-06-01T15:47:02.083Z,36.68
2019-06-01T15:49:30.584Z,37.62
2019-06-01T15:51:59.903Z,37.55
2019-06-01T15:54:28.427Z,37.47
2019-06-01T15:56:56.928Z,36.49
2019-06-01T15:59:28.084Z,36.67
2019-06-01T16:01:57.288Z,37.06
2019-06-01T16:04:25.925Z,36.81
2019-06-01T16:06:54.997Z,36.30
2019-06-01T16:09:41.346Z,35.34
2019-06-01T16:11:53.679Z,34.69
2019-06-01T16:14:22.189Z,34.26
2019-06-01T16:16:50.664Z,34.14
2019-06-01T16:19:19.165Z,35.77
2019-06-01T16:21:47.648Z,36.34
2019-06-01T16:24:16.144Z,36.08
2019-06-01T16:26:44.621Z,34.86
2019-06-01T16:29:13.131Z,34.09
2019-06-01T16:31:41.611Z,35.27
2019-06-01T16:34:10.108Z,36.20
2019-06-01T16:36:38.573Z,35.49
2019-06-01T16:39:09.571Z,35.11
2019-06-01T16:41:38.123Z,34.35
2019-06-01T16:44:06.896Z,34.19
2019-06-01T16:46:35.357Z,34.83
2019-06-01T16:49:03.918Z,35.09
2019-06-01T16:51:51.142Z,35.29
2019-06-01T16:54:19.710Z,35.40
2019-06-01T16:56:48.262Z,35.70
2019-06-01T16:59:16.757Z,35.88
2019-06-01T17:01:45.238Z,34.49
2019-06-01T17:04:13.730Z,33.06
2019-06-01T17:06:42.950Z,33.08
2019-06-01T17:09:11.456Z,33.14
2019-06-01T17:11:40.005Z,33.63
2019-06-01T17:14:08.577Z,33.35
2019-06-01T17:16:37.188Z,32.30
2019-06-01T17:19:07.216Z,30.86
2019-06-01T17:21:35.674Z,30.26
2019-06-01T17:24:04.434Z,30.32
2019-06-01T17:26:32.899Z,30.77
2019-06-01T17:29:02.136Z,30.84
2019-06-01T17:31:30.657Z,31.32
2019-06-01T17:34:00.351Z,31.39
2019-06-01T17:36:28.877Z,31.24
2019-06-01T17:38:57.440Z,30.92
2019-06-01T17:41:25.988Z,30.55
2019-06-01T17:43:54.489Z,30.33
2019-06-01T17:46:23.017Z,30.21
2019-06-01T17:48:51.496Z,30.18
2019-06-01T17:51:20.064Z,30.12
2019-06-01T17:53:48.553Z,29.97
2019-06-01T17:56:17.126Z,29.92
2019-06-01T17:58:45.603Z,29.97
2019-06-01T18:01:14.181Z,29.88
2019-06-01T18:03:42.659Z,29.81
2019-06-01T18:06:12.785Z,29.69
2019-06-01T18:08:41.465Z,29.28
2019-06-01T18:11:10.134Z,28.91
2019-06-01T18:13:38.586Z,28.59
2019-06-01T18:16:08.270Z,28.20
2019-06-01T18:18:36.834Z,27.79
2019-06-01T18:21:06.294Z,27.37
2019-06-01T18:23:34.816Z,26.78
2019-06-01T18:26:04.965Z,25.64
2019-06-01T18:28:33.671Z,24.69
2019-06-01T18:31:02.669Z,24.13
2019-06-01T18:33:31.294Z,23.76
2019-06-01T18:35:59.784Z,23.49
2019-06-01T18:38:28.345Z,23.27
2019-06-01T18:41:09.498Z,22.93
2019-06-01T18:43:27.089Z,22.75
2019-06-01T18:45:55.585Z,22.54
2019-06-01T18:48:24.063Z,22.13
2019-06-01T18:50:52.555Z,21.87
2019-06-01T18:53:21.033Z,21.83
2019-06-01T18:55:49.562Z,21.57
2019-06-01T18:58:18.037Z,21.35
2019-06-01T19:00:46.573Z,21.11
2019-06-01T19:03:15.624Z,21.00
2019-06-01T19:05:44.199Z,20.76
2019-06-01T19:08:13.667Z,20.59
2019-06-01T19:10:42.407Z,20.27
2019-06-01T19:13:11.697Z,20.25
2019-06-01T19:15:40.410Z,20.21
2019-06-01T19:18:10.321Z,20.07
2019-06-01T19:20:38.976Z,19.95
2019-06-01T19:23:08.660Z,19.80
2019-06-01T19:25:37.342Z,19.66
2019-06-01T19:28:06.841Z,19.55
2019-06-01T19:30:42.960Z,19.42
2019-06-01T19:33:15.498Z,19.29
2019-06-01T19:35:42.362Z,19.13
2019-06-01T19:38:11.425Z,19.04
2019-06-01T19:40:41.213Z,18.94
2019-06-01T19:43:10.251Z,18.90
2019-06-01T19:45:39.898Z,18.79
2019-06-01T19:48:10.059Z,18.68
2019-06-01T19:50:38.931Z,18.55
2019-06-01T19:53:08.667Z,18.48
2019-06-01T19:55:37.233Z,18.39
2019-06-01T19:58:05.878Z,18.33
2019-06-01T20:00:34.416Z,18.28
2019-06-01T20:03:02.901Z,18.26
2019-06-01T20:05:31.376Z,18.20
2019-06-01T20:07:59.869Z,18.16
2019-06-01T20:10:28.365Z,18.16
2019-06-01T20:12:56.864Z,18.14
2019-06-01T20:15:25.346Z,18.04
2019-06-01T20:17:53.853Z,17.89
2019-06-01T20:20:23.164Z,17.99
2019-06-01T20:22:51.663Z,17.98
2019-06-01T20:25:21.817Z,17.93
2019-06-01T20:27:50.302Z,17.76
2019-06-01T20:30:19.895Z,17.73
2019-06-01T20:32:48.489Z,17.70
2019-06-01T20:35:18.048Z,17.70
2019-06-01T20:37:46.604Z,17.66
2019-06-01T20:40:16.286Z,17.66
2019-06-01T20:42:44.779Z,17.59
2019-06-01T20:45:14.536Z,17.57
2019-06-01T20:47:43.166Z,17.42
2019-06-01T20:50:12.884Z,17.25
2019-06-01T20:52:41.400Z,17.16
2019-06-01T20:55:09.925Z,17.16
2019-06-01T20:57:38.393Z,17.21
2019-06-01T21:00:10.484Z,17.23
2019-06-01T21:02:38.964Z,17.19
2019-06-01T21:05:08.314Z,17.12
2019-06-01T21:07:37.229Z,16.99
2019-06-01T21:10:07.967Z,17.04
2019-06-01T21:12:44.826Z,16.94
2019-06-01T21:15:07.743Z,16.91
2019-06-01T21:17:36.360Z,16.77
2019-06-01T21:20:07.974Z,16.85
2019-06-01T21:22:36.562Z,16.76
2019-06-01T21:25:07.420Z,16.78
2019-06-01T21:27:35.956Z,16.79
2019-06-01T21:30:07.416Z,16.80
2019-06-01T21:32:35.891Z,16.77
2019-06-01T21:35:05.067Z,16.70
2019-06-01T21:37:33.704Z,16.68
2019-06-01T21:40:02.201Z,16.65
2019-06-01T21:42:31.051Z,16.63
2019-06-01T21:44:59.678Z,16.57
2019-06-01T21:47:28.414Z,16.54
2019-06-01T21:49:57.051Z,16.47
2019-06-01T21:52:26.360Z,16.45
2019-06-01T21:54:55.000Z,16.35
2019-06-01T21:57:24.581Z,16.33
2019-06-01T21:59:53.167Z,16.38
2019-06-01T22:02:23.030Z,16.22
2019-06-01T22:04:51.763Z,16.18
2019-06-01T22:07:21.254Z,16.26
2019-06-01T22:09:50.171Z,16.08
2019-06-01T22:12:19.193Z,16.05
2019-06-01T22:14:47.771Z,16.05
2019-06-01T22:17:17.410Z,16.10
2019-06-01T22:19:45.951Z,16.03
2019-06-01T22:22:14.427Z,16.11
2019-06-01T22:24:42.938Z,16.09
2019-06-01T22:27:11.435Z,16.12
2019-06-01T22:29:39.925Z,16.04
2019-06-01T22:32:08.400Z,16.11
2019-06-01T22:34:36.986Z,16.14
2019-06-01T22:37:05.937Z,16.14
2019-06-01T22:39:34.447Z,16.01
2019-06-01T22:42:02.925Z,16.01
2019-06-01T22:44:32.443Z,15.89
2019-06-01T22:47:01.005Z,15.54
2019-06-01T22:49:29.477Z,15.61
2019-06-01T22:51:57.985Z,15.62
2019-06-01T22:54:27.218Z,15.57
2019-06-01T22:56:55.746Z,15.55
2019-06-01T22:59:24.538Z,15.57
2019-06-01T23:01:53.114Z,15.64
2019-06-01T23:04:22.656Z,15.65
2019-06-01T23:06:51.442Z,15.61
2019-06-01T23:09:21.029Z,15.11
2019-06-01T23:11:49.589Z,15.20
2019-06-01T23:14:18.053Z,15.30
2019-06-01T23:16:46.618Z,15.30
2019-06-01T23:19:15.089Z,15.43
2019-06-01T23:21:43.582Z,15.52
2019-06-01T23:24:12.060Z,15.53
2019-06-01T23:26:40.553Z,15.51
2019-06-01T23:29:09.025Z,15.50
2019-06-01T23:31:37.526Z,15.48
2019-06-01T23:34:06.069Z,15.38
2019-06-01T23:36:34.568Z,15.32
2019-06-01T23:39:03.107Z,15.30
2019-06-01T23:41:32.873Z,15.34
2019-06-01T23:44:11.868Z,15.31
2019-06-01T23:46:33.420Z,15.30
2019-06-01T23:49:01.979Z,15.25
2019-06-01T23:51:31.818Z,15.22
2019-06-01T23:54:00.326Z,15.13
2019-06-01T23:56:29.761Z,15.15
2019-06-01T23:58:58.267Z,15.11
